createdAt,value
2022-11-16T00:01:36.218Z,33.90
2022-11-16T00:04:04.452Z,39.20
2022-11-16T00:06:32.003Z,31.70
2022-11-16T00:09:19.306Z,32.53
2022-11-16T00:11:51.130Z,31.27
2022-11-16T00:14:18.818Z,37.17
2022-11-16T00:16:46.387Z,36.27
2022-11-16T00:19:13.958Z,38.70
2022-11-16T00:21:41.733Z,28.93
2022-11-16T00:24:12.911Z,26.17
2022-11-16T00:26:40.409Z,37.50
2022-11-16T00:29:14.378Z,24.97
2022-11-16T00:31:42.198Z,43.53
2022-11-16T00:34:09.767Z,45.37
2022-11-16T00:36:37.371Z,52.53
2022-11-16T00:39:05.398Z,34.90
2022-11-16T00:41:32.926Z,42.20
2022-11-16T00:44:00.498Z,26.07
2022-11-16T00:46:29.647Z,28.10
2022-11-16T00:48:57.149Z,30.57
2022-11-16T00:51:24.732Z,27.10
2022-11-16T00:53:52.428Z,33.30
2022-11-16T00:56:20.576Z,32.03
2022-11-16T00:58:48.127Z,32.77
2022-11-16T01:01:15.897Z,44.77
2022-11-16T01:03:45.985Z,31.23
2022-11-16T01:06:15.944Z,36.73
2022-11-16T01:08:44.553Z,37.70
2022-11-16T01:11:32.257Z,39.43
2022-11-16T01:13:59.743Z,36.37
2022-11-16T01:16:27.241Z,27.27
2022-11-16T01:18:56.197Z,47.93
2022-11-16T01:21:24.702Z,33.80
2022-11-16T01:23:53.067Z,40.93
2022-11-16T01:26:20.838Z,26.97
2022-11-16T01:28:48.525Z,32.40
2022-11-16T01:31:16.075Z,28.67
2022-11-16T01:33:43.632Z,30.13
2022-11-16T01:36:28.424Z,26.97
2022-11-16T01:38:58.154Z,24.73
2022-11-16T01:41:29.917Z,29.53
2022-11-16T01:44:02.395Z,28.67
2022-11-16T01:46:35.743Z,34.13
2022-11-16T01:49:07.942Z,32.53
2022-11-16T01:51:38.397Z,25.80
2022-11-16T01:54:09.626Z,29.10
2022-11-16T01:56:40.413Z,30.27
2022-11-16T01:59:12.610Z,26.30
2022-11-16T02:01:40.615Z,29.97
2022-11-16T02:04:11.057Z,29.30
2022-11-16T02:07:00.154Z,31.90
2022-11-16T02:09:55.874Z,28.00
2022-11-16T02:13:01.643Z,28.07
2022-11-16T02:15:42.201Z,58.60
2022-11-16T02:18:25.674Z,41.37
2022-11-16T02:21:24.697Z,30.83
2022-11-16T02:24:12.730Z,30.13
2022-11-16T02:27:08.724Z,29.77
2022-11-16T02:29:40.726Z,37.93
2022-11-16T02:32:13.174Z,28.97
2022-11-16T02:34:46.155Z,27.57
2022-11-16T02:37:19.129Z,23.50
2022-11-16T02:39:48.997Z,31.13
2022-11-16T02:42:22.700Z,33.23
2022-11-16T02:44:53.640Z,32.83
2022-11-16T02:47:28.704Z,41.80
2022-11-16T02:50:01.387Z,23.60
2022-11-16T02:52:30.151Z,27.47
2022-11-16T02:54:57.923Z,36.07
2022-11-16T02:57:39.224Z,27.97
2022-11-16T03:00:16.739Z,30.73
2022-11-16T03:02:52.119Z,38.10
2022-11-16T03:05:31.914Z,24.10
2022-11-16T03:08:09.361Z,30.77
2022-11-16T03:11:00.085Z,29.67
2022-11-16T03:13:31.957Z,35.97
2022-11-16T03:16:02.801Z,30.27
2022-11-16T03:18:32.544Z,29.00
2022-11-16T03:21:07.920Z,44.33
2022-11-16T03:23:35.610Z,37.40
2022-11-16T03:26:08.054Z,32.07
2022-11-16T03:28:48.232Z,41.27
2022-11-16T03:31:22.476Z,29.00
2022-11-16T03:33:56.063Z,33.77
2022-11-16T03:36:30.148Z,34.77
2022-11-16T03:39:02.340Z,54.73
2022-11-16T03:41:32.677Z,58.67
2022-11-16T03:44:01.575Z,44.73
2022-11-16T03:46:30.466Z,46.67
2022-11-16T03:48:59.672Z,38.70
2022-11-16T03:51:31.165Z,37.40
2022-11-16T03:53:59.055Z,35.60
2022-11-16T03:56:26.797Z,42.07
2022-11-16T03:58:54.335Z,38.30
2022-11-16T04:01:22.012Z,40.47
2022-11-16T04:03:51.601Z,50.33
2022-11-16T04:06:37.999Z,48.37
2022-11-16T04:09:23.793Z,55.07
2022-11-16T04:12:10.083Z,52.80
2022-11-16T04:14:56.516Z,40.37
2022-11-16T04:17:44.474Z,32.23
2022-11-16T04:20:34.486Z,50.13
2022-11-16T04:23:27.812Z,54.33
2022-11-16T04:25:56.132Z,50.17
2022-11-16T04:28:29.572Z,55.40
2022-11-16T04:31:20.152Z,51.00
2022-11-16T04:34:16.280Z,53.40
2022-11-16T04:37:08.197Z,40.30
2022-11-16T04:39:36.368Z,40.07
2022-11-16T04:42:15.127Z,48.87
2022-11-16T04:45:01.839Z,45.13
2022-11-16T04:47:35.687Z,52.30
2022-11-16T04:50:03.516Z,49.30
2022-11-16T04:52:32.533Z,61.13
2022-11-16T04:55:00.244Z,48.00
2022-11-16T04:57:29.246Z,59.13
2022-11-16T04:59:57.232Z,58.30
2022-11-16T05:02:25.182Z,58.63
2022-11-16T05:04:56.851Z,61.20
2022-11-16T05:07:25.701Z,54.37
2022-11-16T05:10:01.622Z,47.43
2022-11-16T05:12:29.524Z,49.63
2022-11-16T05:15:00.333Z,56.23
2022-11-16T05:17:31.106Z,76.23
2022-11-16T05:20:18.290Z,55.90
2022-11-16T05:22:54.528Z,55.43
2022-11-16T05:25:24.589Z,52.70
2022-11-16T05:27:52.749Z,55.50
2022-11-16T05:30:20.512Z,64.13
2022-11-16T05:32:48.146Z,56.20
2022-11-16T05:35:17.424Z,59.33
2022-11-16T05:37:45.487Z,57.57
2022-11-16T05:40:13.753Z,47.77
2022-11-16T05:42:48.994Z,54.53
2022-11-16T05:45:20.970Z,55.27
2022-11-16T05:47:49.383Z,52.37
2022-11-16T05:50:17.529Z,56.17
2022-11-16T05:52:52.580Z,58.90
2022-11-16T05:55:20.149Z,67.43
2022-11-16T05:57:49.068Z,56.93
2022-11-16T06:00:17.563Z,65.00
2022-11-16T06:02:49.416Z,60.60
2022-11-16T06:05:24.380Z,55.13
2022-11-16T06:07:52.450Z,52.97
2022-11-16T06:10:20.135Z,65.53
2022-11-16T06:12:51.748Z,71.07
2022-11-16T06:15:19.815Z,60.93
2022-11-16T06:17:48.379Z,56.73
2022-11-16T06:20:17.395Z,61.63
2022-11-16T06:22:46.425Z,61.40
2022-11-16T06:25:14.434Z,81.43
2022-11-16T06:27:44.471Z,64.20
2022-11-16T06:30:17.411Z,63.90
2022-11-16T06:32:45.605Z,69.80
2022-11-16T06:35:13.176Z,66.03
2022-11-16T06:37:40.947Z,65.63
2022-11-16T06:40:10.446Z,61.47
2022-11-16T06:42:42.715Z,73.37
2022-11-16T06:45:12.182Z,54.97
2022-11-16T06:47:45.320Z,63.87
2022-11-16T06:50:13.016Z,66.50
2022-11-16T06:52:40.628Z,68.57
2022-11-16T06:55:09.694Z,63.67
2022-11-16T06:57:38.583Z,79.03
2022-11-16T07:00:09.076Z,66.43
2022-11-16T07:02:38.420Z,64.93
2022-11-16T07:05:09.820Z,59.93
2022-11-16T07:07:37.707Z,83.63
2022-11-16T07:10:06.353Z,63.30
2022-11-16T07:12:34.125Z,68.23
2022-11-16T07:15:02.742Z,58.93
2022-11-16T07:17:33.546Z,60.90
2022-11-16T07:20:01.163Z,72.93
2022-11-16T07:22:31.251Z,63.13
2022-11-16T07:25:00.008Z,58.27
2022-11-16T07:27:28.856Z,61.50
2022-11-16T07:29:56.384Z,60.43
2022-11-16T07:32:43.069Z,65.90
2022-11-16T07:35:20.075Z,65.90
2022-11-16T07:37:49.188Z,66.73
2022-11-16T07:40:17.328Z,62.93
2022-11-16T07:42:46.420Z,61.27
2022-11-16T07:45:24.947Z,63.93
2022-11-16T07:47:58.162Z,76.13
2022-11-16T07:50:45.694Z,61.00
2022-11-16T07:53:15.054Z,74.37
2022-11-16T07:55:42.631Z,66.30
2022-11-16T07:58:10.589Z,81.00
2022-11-16T08:00:38.798Z,64.23
2022-11-16T08:03:16.479Z,67.73
2022-11-16T08:05:47.246Z,67.40
2022-11-16T08:08:16.193Z,61.50
2022-11-16T08:10:43.817Z,66.90
2022-11-16T08:13:12.254Z,59.97
2022-11-16T08:15:40.540Z,63.47
2022-11-16T08:18:10.207Z,75.30
2022-11-16T08:20:38.444Z,69.43
2022-11-16T08:23:06.654Z,61.60
2022-11-16T08:25:38.142Z,69.93
2022-11-16T08:28:06.513Z,59.07
2022-11-16T08:30:35.440Z,65.97
2022-11-16T08:33:02.961Z,59.47
2022-11-16T08:35:30.583Z,49.23
2022-11-16T08:37:58.635Z,64.13
2022-11-16T08:40:30.668Z,59.73
2022-11-16T08:43:48.357Z,44.73
2022-11-16T08:46:30.531Z,53.83
2022-11-16T08:49:08.832Z,58.60
2022-11-16T08:51:42.516Z,59.17
2022-11-16T08:54:10.515Z,50.67
2022-11-16T08:56:42.443Z,55.83
2022-11-16T08:59:12.492Z,50.27
2022-11-16T09:01:46.530Z,57.23
2022-11-16T09:04:17.395Z,49.43
2022-11-16T09:06:45.642Z,41.90
2022-11-16T09:12:18.120Z,51.67
2022-11-16T09:14:47.636Z,46.93
2022-11-16T09:17:21.754Z,40.43
2022-11-16T09:19:51.503Z,47.13
2022-11-16T09:22:21.612Z,42.63
2022-11-16T09:24:53.220Z,42.23
2022-11-16T09:27:23.657Z,40.77
2022-11-16T09:29:52.955Z,37.70
2022-11-16T09:32:23.682Z,32.30
2022-11-16T09:34:51.464Z,23.70
2022-11-16T09:37:19.566Z,25.20
2022-11-16T09:39:47.564Z,24.17
2022-11-16T09:42:34.376Z,24.87
2022-11-16T09:45:08.399Z,18.30
2022-11-16T09:47:49.364Z,18.23
2022-11-16T09:50:28.096Z,29.30
2022-11-16T09:53:01.571Z,22.20
2022-11-16T09:55:34.901Z,15.93
2022-11-16T09:58:16.267Z,17.77
2022-11-16T10:00:51.548Z,26.70
2022-11-16T10:03:19.676Z,19.87
2022-11-16T10:05:54.567Z,23.37
2022-11-16T10:08:30.220Z,22.03
2022-11-16T10:11:06.598Z,27.97
2022-11-16T10:13:47.809Z,29.03
2022-11-16T10:16:31.270Z,27.43
2022-11-16T10:19:11.960Z,26.13
2022-11-16T10:21:52.996Z,29.60
2022-11-16T10:24:34.497Z,31.97
2022-11-16T10:27:22.135Z,27.97
2022-11-16T10:30:03.144Z,32.33
2022-11-16T10:32:38.082Z,31.43
2022-11-16T10:35:16.882Z,26.27
2022-11-16T10:37:49.946Z,26.80
2022-11-16T10:40:21.578Z,35.37
2022-11-16T10:43:00.144Z,29.57
2022-11-16T10:45:34.162Z,26.30
2022-11-16T10:48:10.150Z,27.10
2022-11-16T10:50:40.402Z,27.00
2022-11-16T10:53:08.092Z,30.47
2022-11-16T10:55:36.249Z,25.97
2022-11-16T10:58:06.192Z,28.17
2022-11-16T11:00:41.453Z,23.13
2022-11-16T11:03:12.257Z,24.47
2022-11-16T11:05:49.968Z,20.33
2022-11-16T11:08:26.950Z,22.63
2022-11-16T11:11:22.591Z,26.80
2022-11-16T11:14:04.849Z,26.50
2022-11-16T11:16:32.641Z,22.23
2022-11-16T11:19:18.413Z,26.73
2022-11-16T11:21:46.270Z,26.70
2022-11-16T11:24:43.462Z,31.50
2022-11-16T11:27:05.375Z,28.43
2022-11-16T11:29:37.562Z,24.23
2022-11-16T11:32:07.864Z,24.67
2022-11-16T11:34:42.887Z,24.43
2022-11-16T11:37:16.204Z,26.53
2022-11-16T11:40:20.520Z,30.63
2022-11-16T11:43:00.447Z,26.70
2022-11-16T11:45:41.653Z,31.87
2022-11-16T11:48:25.275Z,31.07
2022-11-16T11:50:56.140Z,23.37
2022-11-16T11:53:40.233Z,32.50
2022-11-16T11:56:11.333Z,40.63
2022-11-16T11:58:41.052Z,21.73
2022-11-16T12:01:46.847Z,30.83
2022-11-16T12:04:47.659Z,30.17
2022-11-16T12:07:26.344Z,25.63
2022-11-16T12:10:02.214Z,28.23
2022-11-16T12:12:48.369Z,26.03
2022-11-16T12:15:45.575Z,27.30
2022-11-16T12:18:30.758Z,28.87
2022-11-16T12:21:06.792Z,33.20
2022-11-16T12:23:59.877Z,23.63
2022-11-16T12:26:39.264Z,24.50
2022-11-16T12:29:24.981Z,32.17
2022-11-16T12:32:23.362Z,26.67
2022-11-16T12:35:04.714Z,29.93
2022-11-16T12:37:40.084Z,28.47
2022-11-16T12:40:27.017Z,29.83
2022-11-16T12:43:03.161Z,27.83
2022-11-16T12:45:49.849Z,33.43
2022-11-16T12:48:45.511Z,22.23
2022-11-16T12:51:31.630Z,30.17
2022-11-16T12:54:15.078Z,27.07
2022-11-16T12:56:51.697Z,30.60
2022-11-16T12:59:31.971Z,30.83
2022-11-16T13:02:10.845Z,29.17
2022-11-16T13:04:43.304Z,29.00
2022-11-16T13:07:15.259Z,31.93
2022-11-16T13:09:47.608Z,27.07
2022-11-16T13:12:19.729Z,24.00
2022-11-16T13:14:50.585Z,25.17
2022-11-16T13:17:23.055Z,25.93
2022-11-16T13:20:16.605Z,23.43
2022-11-16T13:22:51.985Z,24.87
2022-11-16T13:25:28.356Z,19.03
2022-11-16T13:28:04.772Z,21.47
2022-11-16T13:30:41.933Z,20.17
2022-11-16T13:33:28.977Z,23.53
2022-11-16T13:35:56.953Z,22.87
2022-11-16T13:38:50.641Z,21.40
2022-11-16T13:41:29.221Z,18.27
2022-11-16T13:43:57.148Z,21.70
2022-11-16T13:46:54.043Z,17.80
2022-11-16T13:49:31.014Z,16.60
2022-11-16T13:52:17.286Z,18.10
2022-11-16T13:54:52.308Z,20.23
2022-11-16T13:57:24.160Z,16.67
2022-11-16T14:00:08.959Z,21.60
2022-11-16T14:02:37.716Z,20.67
2022-11-16T14:05:15.812Z,15.57
2022-11-16T14:07:46.438Z,16.20
2022-11-16T14:10:55.923Z,16.90
2022-11-16T14:13:49.239Z,15.20
2022-11-16T14:16:48.953Z,17.63
2022-11-16T14:19:58.596Z,22.23
2022-11-16T14:22:51.156Z,18.47
2022-11-16T14:25:30.677Z,19.77
2022-11-16T14:28:16.909Z,14.77
2022-11-16T14:30:56.789Z,15.07
2022-11-16T14:33:32.681Z,19.00
2022-11-16T14:36:03.696Z,13.90
2022-11-16T14:38:47.535Z,16.47
2022-11-16T14:41:22.746Z,15.60
2022-11-16T14:43:58.554Z,18.13
2022-11-16T14:46:34.149Z,18.87
2022-11-16T14:49:03.771Z,19.20
2022-11-16T14:51:35.216Z,20.07
2022-11-16T14:54:16.625Z,17.60
2022-11-16T14:57:04.811Z,15.63
2022-11-16T14:59:38.965Z,16.10
2022-11-16T15:02:21.835Z,15.20
2022-11-16T15:04:53.463Z,14.80
2022-11-16T15:07:24.423Z,13.53
2022-11-16T15:09:56.430Z,15.17
2022-11-16T15:12:46.341Z,18.90
2022-11-16T15:15:19.086Z,13.07
2022-11-16T15:17:53.322Z,13.67
2022-11-16T15:20:24.597Z,15.23
2022-11-16T15:22:54.189Z,16.50
2022-11-16T15:29:48.371Z,15.57
2022-11-16T15:32:17.899Z,14.07
2022-11-16T15:34:48.759Z,16.23
2022-11-16T15:37:28.044Z,14.43
2022-11-16T15:39:56.847Z,13.60
2022-11-16T15:42:26.652Z,13.27
2022-11-16T15:44:56.345Z,13.07
2022-11-16T15:47:24.687Z,15.80
2022-11-16T15:49:53.084Z,15.27
2022-11-16T15:52:43.287Z,12.23
2022-11-16T15:55:34.040Z,14.07
2022-11-16T15:58:08.031Z,13.13
2022-11-16T16:00:38.354Z,13.13
2022-11-16T16:03:15.736Z,13.43
2022-11-16T16:06:05.919Z,14.80
2022-11-16T16:08:35.252Z,25.73
2022-11-16T16:11:06.507Z,10.03
2022-11-16T16:13:37.147Z,10.37
2022-11-16T16:16:24.762Z,11.90
2022-11-16T16:18:53.400Z,14.80
2022-11-16T16:21:21.194Z,16.23
2022-11-16T16:23:50.413Z,11.33
2022-11-16T16:26:18.667Z,14.40
2022-11-16T16:28:46.870Z,12.87
2022-11-16T16:31:18.537Z,16.17
2022-11-16T16:33:45.987Z,13.57
2022-11-16T16:36:13.639Z,15.20
2022-11-16T16:38:41.109Z,10.80
2022-11-16T16:41:08.873Z,14.77
2022-11-16T16:43:36.768Z,14.10
2022-11-16T16:46:05.211Z,12.57
2022-11-16T16:48:34.024Z,14.47
2022-11-16T16:51:01.501Z,12.33
2022-11-16T16:53:29.299Z,12.10
2022-11-16T16:55:56.773Z,9.37
2022-11-16T16:58:24.209Z,11.37
2022-11-16T17:00:53.727Z,12.47
2022-11-16T17:03:24.400Z,11.23
2022-11-16T17:05:53.745Z,12.50
2022-11-16T17:08:21.180Z,10.07
2022-11-16T17:10:50.742Z,12.87
2022-11-16T17:13:18.209Z,9.70
2022-11-16T17:15:45.901Z,14.20
2022-11-16T17:18:13.376Z,13.63
2022-11-16T17:20:45.204Z,12.83
2022-11-16T17:23:15.202Z,7.93
2022-11-16T17:25:45.246Z,9.97
2022-11-16T17:28:12.717Z,13.77
2022-11-16T17:30:40.662Z,16.60
2022-11-16T17:33:08.283Z,14.27
2022-11-16T17:35:36.111Z,10.50
2022-11-16T17:38:03.945Z,14.43
2022-11-16T17:40:34.464Z,11.97
2022-11-16T17:43:01.983Z,11.00
2022-11-16T17:45:29.583Z,13.43
2022-11-16T17:47:57.065Z,12.43
2022-11-16T17:50:24.556Z,14.13
2022-11-16T17:52:58.245Z,11.83
2022-11-16T17:55:25.809Z,10.90
2022-11-16T17:57:58.415Z,10.80
2022-11-16T18:00:26.078Z,9.53
2022-11-16T18:02:53.556Z,10.53
2022-11-16T18:05:21.201Z,9.47
2022-11-16T18:07:49.796Z,8.80
2022-11-16T18:10:19.352Z,12.20
2022-11-16T18:12:47.041Z,8.57
2022-11-16T18:15:27.902Z,16.20
2022-11-16T18:17:57.123Z,9.30
2022-11-16T18:20:24.852Z,9.50
2022-11-16T18:22:52.885Z,10.47
2022-11-16T18:25:20.388Z,8.90
2022-11-16T18:27:51.588Z,10.23
2022-11-16T18:30:21.301Z,8.43
2022-11-16T18:32:48.884Z,11.27
2022-11-16T18:35:17.036Z,9.33
2022-11-16T18:37:44.513Z,10.20
2022-11-16T18:40:12.354Z,10.53
2022-11-16T18:42:41.598Z,9.00
2022-11-16T18:45:09.965Z,8.07
2022-11-16T18:47:38.929Z,8.70
2022-11-16T18:50:18.049Z,10.47
2022-11-16T18:52:46.625Z,10.00
2022-11-16T18:55:14.158Z,8.80
2022-11-16T18:57:41.703Z,9.13
2022-11-16T19:00:11.834Z,9.07
2022-11-16T19:02:40.720Z,8.53
2022-11-16T19:05:08.590Z,11.83
2022-11-16T19:07:36.198Z,8.13
2022-11-16T19:10:03.787Z,8.67
2022-11-16T19:12:31.241Z,10.10
2022-11-16T19:14:58.893Z,7.00
2022-11-16T19:17:26.996Z,10.57
2022-11-16T19:19:55.776Z,7.47
2022-11-16T19:22:23.350Z,6.63
2022-11-16T19:24:50.825Z,7.77
2022-11-16T19:27:18.364Z,10.00
2022-11-16T19:29:45.936Z,8.67
2022-11-16T19:32:13.371Z,8.77
2022-11-16T19:34:40.781Z,6.43
2022-11-16T19:37:09.622Z,7.10
2022-11-16T19:39:37.182Z,8.47
2022-11-16T19:42:05.449Z,7.80
2022-11-16T19:44:33.153Z,6.83
2022-11-16T19:47:00.584Z,8.30
2022-11-16T19:49:28.078Z,7.87
2022-11-16T19:51:55.620Z,7.80
2022-11-16T19:54:24.442Z,7.53
2022-11-16T19:56:55.210Z,7.30
2022-11-16T19:59:23.102Z,8.67
2022-11-16T20:01:50.559Z,10.37
2022-11-16T20:04:18.202Z,7.60
2022-11-16T20:06:45.756Z,7.33
2022-11-16T20:09:13.289Z,6.97
2022-11-16T20:11:44.885Z,5.77
2022-11-16T20:14:13.801Z,6.07
2022-11-16T20:16:43.228Z,7.93
2022-11-16T20:19:11.484Z,7.43
2022-11-16T20:21:40.701Z,7.77
2022-11-16T20:24:10.745Z,7.43
2022-11-16T20:26:43.918Z,7.93
2022-11-16T20:29:12.491Z,6.57
2022-11-16T20:31:42.533Z,5.80
2022-11-16T20:34:13.962Z,7.33
2022-11-16T20:36:43.245Z,5.80
2022-11-16T20:39:13.882Z,8.07
2022-11-16T20:41:43.937Z,6.80
2022-11-16T20:44:16.741Z,11.30
2022-11-16T20:46:45.232Z,7.53
2022-11-16T20:49:13.299Z,7.73
2022-11-16T20:51:40.946Z,6.70
2022-11-16T20:54:08.498Z,6.90
2022-11-16T20:56:35.967Z,8.23
2022-11-16T20:59:05.295Z,6.93
2022-11-16T21:01:32.828Z,8.27
2022-11-16T21:04:05.800Z,5.50
2022-11-16T21:06:34.321Z,7.50
2022-11-16T21:09:02.245Z,7.57
2022-11-16T21:11:51.182Z,7.73
2022-11-16T21:14:19.360Z,7.63
2022-11-16T21:16:46.966Z,7.50
2022-11-16T21:19:14.791Z,7.97
2022-11-16T21:21:42.325Z,6.80
2022-11-16T21:24:10.406Z,8.20
2022-11-16T21:26:39.706Z,8.13
2022-11-16T21:29:07.236Z,7.10
2022-11-16T21:31:37.698Z,7.00
2022-11-16T21:34:07.672Z,6.77
2022-11-16T21:36:36.082Z,9.00
2022-11-16T21:39:03.640Z,7.40
2022-11-16T21:41:34.119Z,7.87
2022-11-16T21:44:01.613Z,6.07
2022-11-16T21:46:29.155Z,7.73
2022-11-16T21:48:58.946Z,5.83
2022-11-16T21:51:28.006Z,5.77
2022-11-16T21:53:57.110Z,8.80
2022-11-16T21:56:26.892Z,7.57
2022-11-16T21:58:55.663Z,6.90
2022-11-16T22:01:25.403Z,9.33
2022-11-16T22:04:06.966Z,7.63
2022-11-16T22:06:54.145Z,8.03
2022-11-16T22:09:26.433Z,6.63
2022-11-16T22:11:54.621Z,7.90
2022-11-16T22:14:22.168Z,9.23
2022-11-16T22:16:49.620Z,6.07
2022-11-16T22:19:17.178Z,6.77
2022-11-16T22:21:45.947Z,5.63
2022-11-16T22:24:13.442Z,6.70
2022-11-16T22:26:44.683Z,6.13
2022-11-16T22:29:13.496Z,6.57
2022-11-16T22:31:40.944Z,5.20
2022-11-16T22:34:08.522Z,6.73
2022-11-16T22:36:36.085Z,6.17
2022-11-16T22:39:05.092Z,6.90
2022-11-16T22:41:32.691Z,5.70
2022-11-16T22:44:00.627Z,6.00
2022-11-16T22:46:28.179Z,8.87
2022-11-16T22:48:56.029Z,7.30
2022-11-16T22:51:25.839Z,7.83
2022-11-16T22:53:55.020Z,8.03
2022-11-16T22:56:24.936Z,8.70
2022-11-16T22:58:52.758Z,9.63
2022-11-16T23:01:21.186Z,7.97
2022-11-16T23:03:49.096Z,5.43
2022-11-16T23:06:18.430Z,8.40
2022-11-16T23:08:47.505Z,8.13
2022-11-16T23:11:34.286Z,8.20
2022-11-16T23:14:22.079Z,8.13
2022-11-16T23:16:51.028Z,8.63
2022-11-16T23:19:37.859Z,9.23
2022-11-16T23:22:24.475Z,9.37
2022-11-16T23:25:10.569Z,8.00
2022-11-16T23:27:44.174Z,8.30
2022-11-16T23:30:16.098Z,6.87
2022-11-16T23:32:43.952Z,8.23
2022-11-16T23:35:12.159Z,6.37
2022-11-16T23:37:53.962Z,9.20
2022-11-16T23:40:23.405Z,8.77
2022-11-16T23:43:12.133Z,9.37
2022-11-16T23:45:42.149Z,10.27
2022-11-16T23:48:11.146Z,12.07
2022-11-16T23:50:38.879Z,11.17
2022-11-16T23:53:07.620Z,11.27
2022-11-16T23:55:36.262Z,12.23
2022-11-16T23:58:03.693Z,10.07
